sensor_id;sensor_type;location;lat;lon;timestamp;pressure;altitude;pressure_sealevel;temperature;humidity
82311;BME280;72015;51.330;12.316;2023-09-30T00:02:16;100887.19;;;18.76;44.08
82311;BME280;72015;51.330;12.316;2023-09-30T00:06:32;100890.45;;;18.77;43.61
82311;BME280;72015;51.330;12.316;2023-09-30T00:10:48;100895.59;;;18.79;43.45
82311;BME280;72015;51.330;12.316;2023-09-30T00:15:05;100903.53;;;18.77;43.66
82311;BME280;72015;51.330;12.316;2023-09-30T00:19:21;100909.90;;;18.64;43.73
82311;BME280;72015;51.330;12.316;2023-09-30T00:23:37;100914.92;;;18.61;42.95
82311;BME280;72015;51.330;12.316;2023-09-30T00:27:52;100920.03;;;18.50;43.44
82311;BME280;72015;51.330;12.316;2023-09-30T00:32:08;100926.36;;;18.41;43.05
82311;BME280;72015;51.330;12.316;2023-09-30T00:36:25;100932.40;;;18.41;42.26
82311;BME280;72015;51.330;12.316;2023-09-30T00:40:46;100939.50;;;18.47;42.15
82311;BME280;72015;51.330;12.316;2023-09-30T00:44:57;100945.12;;;18.51;41.90
82311;BME280;72015;51.330;12.316;2023-09-30T00:49:13;100949.46;;;18.45;42.31
82311;BME280;72015;51.330;12.316;2023-09-30T00:53:29;100952.33;;;18.47;41.92
82311;BME280;72015;51.330;12.316;2023-09-30T00:57:45;100954.12;;;18.45;42.39
82311;BME280;72015;51.330;12.316;2023-09-30T01:02:01;100955.42;;;18.46;41.77
82311;BME280;72015;51.330;12.316;2023-09-30T01:06:17;100957.11;;;18.46;41.68
82311;BME280;72015;51.330;12.316;2023-09-30T01:10:32;100959.52;;;18.45;42.34
82311;BME280;72015;51.330;12.316;2023-09-30T01:14:48;100963.18;;;18.33;43.52
82311;BME280;72015;51.330;12.316;2023-09-30T01:19:05;100969.33;;;18.34;42.21
82311;BME280;72015;51.330;12.316;2023-09-30T01:23:21;100977.29;;;18.38;42.09
82311;BME280;72015;51.330;12.316;2023-09-30T01:27:37;100981.95;;;18.43;42.22
82311;BME280;72015;51.330;12.316;2023-09-30T01:31:53;100986.80;;;18.44;42.30
82311;BME280;72015;51.330;12.316;2023-09-30T01:36:09;100991.61;;;18.35;43.06
82311;BME280;72015;51.330;12.316;2023-09-30T01:40:25;100998.25;;;18.28;43.07
82311;BME280;72015;51.330;12.316;2023-09-30T01:44:41;101003.04;;;18.10;43.52
82311;BME280;72015;51.330;12.316;2023-09-30T01:48:57;101008.88;;;17.96;43.43
82311;BME280;72015;51.330;12.316;2023-09-30T01:53:13;101015.98;;;17.80;44.09
82311;BME280;72015;51.330;12.316;2023-09-30T01:57:29;101021.56;;;17.67;43.74
82311;BME280;72015;51.330;12.316;2023-09-30T02:01:45;101026.88;;;17.63;43.22
82311;BME280;72015;51.330;12.316;2023-09-30T02:06:01;101031.30;;;17.52;44.27
82311;BME280;72015;51.330;12.316;2023-09-30T02:10:17;101035.65;;;17.53;43.08
82311;BME280;72015;51.330;12.316;2023-09-30T02:14:33;101039.76;;;17.56;42.97
82311;BME280;72015;51.330;12.316;2023-09-30T02:18:49;101045.03;;;17.56;43.17
82311;BME280;72015;51.330;12.316;2023-09-30T02:23:05;101052.44;;;17.49;44.34
82311;BME280;72015;51.330;12.316;2023-09-30T02:27:21;101058.88;;;17.48;43.30
82311;BME280;72015;51.330;12.316;2023-09-30T02:31:37;101063.79;;;17.41;44.27
82311;BME280;72015;51.330;12.316;2023-09-30T02:35:53;101070.03;;;17.33;43.89
82311;BME280;72015;51.330;12.316;2023-09-30T02:40:09;101073.55;;;17.22;44.75
82311;BME280;72015;51.330;12.316;2023-09-30T02:44:24;101078.03;;;17.17;43.98
82311;BME280;72015;51.330;12.316;2023-09-30T02:48:41;101082.78;;;17.19;43.70
82311;BME280;72015;51.330;12.316;2023-09-30T02:52:57;101088.31;;;17.20;43.59
82311;BME280;72015;51.330;12.316;2023-09-30T02:57:13;101095.98;;;17.24;43.59
82311;BME280;72015;51.330;12.316;2023-09-30T03:01:29;101102.83;;;17.30;43.20
82311;BME280;72015;51.330;12.316;2023-09-30T03:05:45;101109.81;;;17.37;43.03
82311;BME280;72015;51.330;12.316;2023-09-30T03:10:01;101117.31;;;17.35;44.13
82311;BME280;72015;51.330;12.316;2023-09-30T03:14:17;101125.31;;;17.33;43.76
82311;BME280;72015;51.330;12.316;2023-09-30T03:18:33;101131.53;;;17.29;44.03
82311;BME280;72015;51.330;12.316;2023-09-30T03:22:49;101134.24;;;17.24;44.40
82311;BME280;72015;51.330;12.316;2023-09-30T03:27:05;101138.34;;;17.08;44.86
82311;BME280;72015;51.330;12.316;2023-09-30T03:31:21;101142.03;;;16.98;44.89
82311;BME280;72015;51.330;12.316;2023-09-30T03:35:37;101142.61;;;16.94;44.64
82311;BME280;72015;51.330;12.316;2023-09-30T03:39:55;101144.81;;;16.87;44.84
82311;BME280;72015;51.330;12.316;2023-09-30T03:44:09;101147.64;;;16.83;44.62
82311;BME280;72015;51.330;12.316;2023-09-30T03:48:24;101149.81;;;16.79;44.63
82311;BME280;72015;51.330;12.316;2023-09-30T03:52:41;101151.67;;;16.74;44.56
82311;BME280;72015;51.330;12.316;2023-09-30T03:56:57;101154.77;;;16.68;45.16
82311;BME280;72015;51.330;12.316;2023-09-30T04:01:13;101158.44;;;16.60;45.19
82311;BME280;72015;51.330;12.316;2023-09-30T04:05:29;101161.21;;;16.53;44.93
82311;BME280;72015;51.330;12.316;2023-09-30T04:09:45;101165.30;;;16.47;45.04
82311;BME280;72015;51.330;12.316;2023-09-30T04:14:01;101168.03;;;16.41;45.02
82311;BME280;72015;51.330;12.316;2023-09-30T04:18:17;101171.01;;;16.38;44.84
82311;BME280;72015;51.330;12.316;2023-09-30T04:22:33;101174.44;;;16.38;44.49
82311;BME280;72015;51.330;12.316;2023-09-30T04:26:49;101176.78;;;16.39;44.54
82311;BME280;72015;51.330;12.316;2023-09-30T04:31:05;101178.69;;;16.37;44.50
82311;BME280;72015;51.330;12.316;2023-09-30T04:35:30;101180.89;;;16.35;44.59
82311;BME280;72015;51.330;12.316;2023-09-30T04:39:37;101181.54;;;16.33;44.43
82311;BME280;72015;51.330;12.316;2023-09-30T04:43:53;101182.98;;;16.33;44.38
82311;BME280;72015;51.330;12.316;2023-09-30T04:48:09;101185.96;;;16.30;44.43
82311;BME280;72015;51.330;12.316;2023-09-30T04:52:25;101187.94;;;16.28;44.46
82311;BME280;72015;51.330;12.316;2023-09-30T04:56:41;101186.41;;;16.26;44.50
82311;BME280;72015;51.330;12.316;2023-09-30T05:00:57;101186.05;;;16.26;44.25
82311;BME280;72015;51.330;12.316;2023-09-30T05:05:13;101185.46;;;16.27;44.17
82311;BME280;72015;51.330;12.316;2023-09-30T05:09:29;101187.45;;;16.25;44.20
82311;BME280;72015;51.330;12.316;2023-09-30T05:13:45;101189.14;;;16.22;44.25
82311;BME280;72015;51.330;12.316;2023-09-30T05:18:01;101192.21;;;16.16;44.30
82311;BME280;72015;51.330;12.316;2023-09-30T05:22:17;101197.25;;;16.09;44.42
82311;BME280;72015;51.330;12.316;2023-09-30T05:26:33;101202.76;;;15.99;44.45
82311;BME280;72015;51.330;12.316;2023-09-30T05:30:49;101208.34;;;15.88;44.78
82311;BME280;72015;51.330;12.316;2023-09-30T05:35:05;101214.20;;;15.72;45.33
82311;BME280;72015;51.330;12.316;2023-09-30T05:39:21;101219.75;;;15.55;45.61
82311;BME280;72015;51.330;12.316;2023-09-30T05:43:37;101225.03;;;15.48;44.98
82311;BME280;72015;51.330;12.316;2023-09-30T05:47:53;101229.05;;;15.39;45.40
82311;BME280;72015;51.330;12.316;2023-09-30T05:52:09;101232.96;;;15.37;44.46
82311;BME280;72015;51.330;12.316;2023-09-30T05:56:25;101241.52;;;15.29;45.45
82311;BME280;72015;51.330;12.316;2023-09-30T06:00:41;101251.81;;;15.16;46.30
82311;BME280;72015;51.330;12.316;2023-09-30T06:04:57;101259.53;;;15.03;46.53
82311;BME280;72015;51.330;12.316;2023-09-30T06:09:13;101263.61;;;14.99;45.80
82311;BME280;72015;51.330;12.316;2023-09-30T06:13:29;101269.17;;;14.95;46.00
82311;BME280;72015;51.330;12.316;2023-09-30T06:17:45;101269.20;;;14.97;45.23
82311;BME280;72015;51.330;12.316;2023-09-30T06:22:01;101271.06;;;14.96;45.60
82311;BME280;72015;51.330;12.316;2023-09-30T06:26:17;101272.39;;;15.00;45.00
82311;BME280;72015;51.330;12.316;2023-09-30T06:30:33;101275.41;;;15.06;44.88
82311;BME280;72015;51.330;12.316;2023-09-30T06:34:49;101277.90;;;15.14;44.42
82311;BME280;72015;51.330;12.316;2023-09-30T06:39:05;101278.83;;;15.23;44.27
82311;BME280;72015;51.330;12.316;2023-09-30T06:43:21;101279.33;;;15.29;44.10
82311;BME280;72015;51.330;12.316;2023-09-30T06:47:37;101278.81;;;15.38;43.76
82311;BME280;72015;51.330;12.316;2023-09-30T06:51:53;101281.19;;;15.47;43.62
82311;BME280;72015;51.330;12.316;2023-09-30T06:56:09;101285.08;;;15.52;43.90
82311;BME280;72015;51.330;12.316;2023-09-30T07:00:25;101288.56;;;15.56;43.44
82311;BME280;72015;51.330;12.316;2023-09-30T07:04:41;101290.35;;;15.61;43.34
82311;BME280;72015;51.330;12.316;2023-09-30T07:08:57;101293.25;;;15.68;43.06
82311;BME280;72015;51.330;12.316;2023-09-30T07:13:13;101293.84;;;15.71;43.27
82311;BME280;72015;51.330;12.316;2023-09-30T07:17:29;101296.56;;;15.75;43.00
82311;BME280;72015;51.330;12.316;2023-09-30T07:21:45;101298.38;;;15.81;42.67
82311;BME280;72015;51.330;12.316;2023-09-30T07:26:01;101299.89;;;15.91;42.35
82311;BME280;72015;51.330;12.316;2023-09-30T07:30:17;101303.19;;;16.05;41.98
82311;BME280;72015;51.330;12.316;2023-09-30T07:34:33;101308.34;;;16.17;42.00
82311;BME280;72015;51.330;12.316;2023-09-30T07:38:49;101313.67;;;16.27;41.93
82311;BME280;72015;51.330;12.316;2023-09-30T07:43:05;101318.81;;;16.34;41.89
82311;BME280;72015;51.330;12.316;2023-09-30T07:47:21;101324.77;;;16.45;41.58
82311;BME280;72015;51.330;12.316;2023-09-30T07:51:37;101329.78;;;16.51;42.08
82311;BME280;72015;51.330;12.316;2023-09-30T07:55:53;101333.70;;;16.62;41.23
82311;BME280;72015;51.330;12.316;2023-09-30T08:00:09;101337.32;;;16.67;41.95
82311;BME280;72015;51.330;12.316;2023-09-30T08:04:25;101339.03;;;16.61;41.73
82311;BME280;72015;51.330;12.316;2023-09-30T08:08:41;101342.66;;;16.61;41.64
82311;BME280;72015;51.330;12.316;2023-09-30T08:12:57;101346.06;;;16.48;43.10
82311;BME280;72015;51.330;12.316;2023-09-30T08:17:13;101350.89;;;16.34;42.65
82311;BME280;72015;51.330;12.316;2023-09-30T08:21:29;101354.22;;;16.32;42.67
82311;BME280;72015;51.330;12.316;2023-09-30T08:25:45;101357.09;;;16.35;42.46
82311;BME280;72015;51.330;12.316;2023-09-30T08:30:01;101359.55;;;16.42;41.93
82311;BME280;72015;51.330;12.316;2023-09-30T08:34:17;101359.81;;;16.41;42.42
82311;BME280;72015;51.330;12.316;2023-09-30T08:38:39;101359.52;;;16.30;43.52
82311;BME280;72015;51.330;12.316;2023-09-30T08:42:52;101359.91;;;16.31;41.61
82311;BME280;72015;51.330;12.316;2023-09-30T08:47:07;101361.39;;;16.47;40.45
82311;BME280;72015;51.330;12.316;2023-09-30T08:51:21;101362.64;;;16.55;41.33
82311;BME280;72015;51.330;12.316;2023-09-30T08:55:37;101364.39;;;16.51;42.06
82311;BME280;72015;51.330;12.316;2023-09-30T08:59:53;101367.35;;;16.37;42.71
82311;BME280;72015;51.330;12.316;2023-09-30T09:04:09;101369.50;;;16.54;40.59
82311;BME280;72015;51.330;12.316;2023-09-30T09:08:25;101370.29;;;16.85;39.39
82311;BME280;72015;51.330;12.316;2023-09-30T09:12:41;101369.96;;;17.20;39.12
82311;BME280;72015;51.330;12.316;2023-09-30T09:16:57;101371.61;;;17.52;38.20
82311;BME280;72015;51.330;12.316;2023-09-30T09:21:17;101370.23;;;17.92;36.91
82311;BME280;72015;51.330;12.316;2023-09-30T09:25:29;101369.76;;;18.30;36.37
82311;BME280;72015;51.330;12.316;2023-09-30T09:29:45;101369.36;;;18.66;35.97
82311;BME280;72015;51.330;12.316;2023-09-30T09:34:04;101370.14;;;18.97;35.53
82311;BME280;72015;51.330;12.316;2023-09-30T09:38:17;101369.02;;;19.20;35.75
82311;BME280;72015;51.330;12.316;2023-09-30T09:42:33;101368.35;;;19.46;35.06
82311;BME280;72015;51.330;12.316;2023-09-30T09:46:49;101367.44;;;19.75;33.99
82311;BME280;72015;51.330;12.316;2023-09-30T09:51:05;101366.09;;;19.99;33.64
82311;BME280;72015;51.330;12.316;2023-09-30T09:55:24;101365.94;;;20.24;33.44
82311;BME280;72015;51.330;12.316;2023-09-30T09:59:38;101366.50;;;20.58;32.59
82311;BME280;72015;51.330;12.316;2023-09-30T10:03:53;101367.16;;;20.91;31.54
82311;BME280;72015;51.330;12.316;2023-09-30T10:08:11;101367.55;;;21.20;30.53
82311;BME280;72015;51.330;12.316;2023-09-30T10:12:25;101369.89;;;21.37;31.39
82311;BME280;72015;51.330;12.316;2023-09-30T10:16:47;101371.32;;;21.56;30.35
82311;BME280;72015;51.330;12.316;2023-09-30T10:20:57;101372.63;;;21.71;30.32
82311;BME280;72015;51.330;12.316;2023-09-30T10:42:42;101375.49;;;25.40;23.48
82311;BME280;72015;51.330;12.316;2023-09-30T10:46:33;101373.92;;;25.84;24.79
82311;BME280;72015;51.330;12.316;2023-09-30T10:50:49;101371.77;;;26.17;23.33
82311;BME280;72015;51.330;12.316;2023-09-30T10:55:05;101370.81;;;26.53;23.74
82311;BME280;72015;51.330;12.316;2023-09-30T10:59:21;101369.00;;;26.72;23.56
82311;BME280;72015;51.330;12.316;2023-09-30T11:03:37;101365.63;;;26.88;23.80
82311;BME280;72015;51.330;12.316;2023-09-30T11:07:53;101363.09;;;27.01;23.54
82311;BME280;72015;51.330;12.316;2023-09-30T11:12:13;101361.05;;;27.12;23.74
82311;BME280;72015;51.330;12.316;2023-09-30T11:16:25;101359.16;;;27.16;23.85
82311;BME280;72015;51.330;12.316;2023-09-30T11:20:41;101355.94;;;27.37;23.02
82311;BME280;72015;51.330;12.316;2023-09-30T11:24:57;101352.61;;;27.45;23.18
82311;BME280;72015;51.330;12.316;2023-09-30T11:29:14;101350.22;;;27.80;21.68
82311;BME280;72015;51.330;12.316;2023-09-30T11:33:29;101345.95;;;28.28;21.17
82311;BME280;72015;51.330;12.316;2023-09-30T11:37:45;101341.88;;;28.66;20.85
82311;BME280;72015;51.330;12.316;2023-09-30T11:42:01;101339.04;;;29.03;20.37
82311;BME280;72015;51.330;12.316;2023-09-30T11:46:17;101336.77;;;29.09;20.77
82311;BME280;72015;51.330;12.316;2023-09-30T11:50:54;101336.25;;;28.92;21.63
82311;BME280;72015;51.330;12.316;2023-09-30T11:54:49;101336.63;;;28.46;23.17
82311;BME280;72015;51.330;12.316;2023-09-30T11:59:05;101335.96;;;28.11;22.30
82311;BME280;72015;51.330;12.316;2023-09-30T12:03:21;101331.73;;;28.00;21.59
82311;BME280;72015;51.330;12.316;2023-09-30T12:07:37;101328.96;;;28.02;21.41
82311;BME280;72015;51.330;12.316;2023-09-30T12:11:53;101324.52;;;28.05;21.65
82311;BME280;72015;51.330;12.316;2023-09-30T12:16:09;101320.09;;;27.94;22.03
82311;BME280;72015;51.330;12.316;2023-09-30T12:20:25;101316.89;;;27.79;22.98
82311;BME280;72015;51.330;12.316;2023-09-30T12:24:41;101311.22;;;27.71;22.57
82311;BME280;72015;51.330;12.316;2023-09-30T12:28:57;101308.59;;;27.61;22.27
82311;BME280;72015;51.330;12.316;2023-09-30T12:33:13;101305.00;;;27.67;22.24
82311;BME280;72015;51.330;12.316;2023-09-30T12:37:29;101301.45;;;27.82;21.70
82311;BME280;72015;51.330;12.316;2023-09-30T12:41:45;101299.30;;;27.61;22.79
82311;BME280;72015;51.330;12.316;2023-09-30T12:46:01;101295.92;;;27.53;22.46
82311;BME280;72015;51.330;12.316;2023-09-30T12:50:17;101291.48;;;27.57;22.00
82311;BME280;72015;51.330;12.316;2023-09-30T12:54:33;101287.85;;;27.69;21.88
82311;BME280;72015;51.330;12.316;2023-09-30T12:58:49;101285.62;;;27.87;20.93
82311;BME280;72015;51.330;12.316;2023-09-30T13:03:05;101282.40;;;28.04;21.04
82311;BME280;72015;51.330;12.316;2023-09-30T13:07:21;101280.75;;;28.05;21.74
82311;BME280;72015;51.330;12.316;2023-09-30T13:11:37;101280.55;;;27.96;21.87
82311;BME280;72015;51.330;12.316;2023-09-30T13:15:53;101282.19;;;27.83;22.20
82311;BME280;72015;51.330;12.316;2023-09-30T13:20:09;101280.41;;;27.87;21.62
82311;BME280;72015;51.330;12.316;2023-09-30T13:24:25;101277.61;;;28.14;20.93
82311;BME280;72015;51.330;12.316;2023-09-30T13:28:41;101276.12;;;28.57;19.77
82311;BME280;72015;51.330;12.316;2023-09-30T13:32:57;101272.78;;;28.98;19.23
82311;BME280;72015;51.330;12.316;2023-09-30T13:37:13;101268.78;;;29.37;19.19
82311;BME280;72015;51.330;12.316;2023-09-30T13:41:29;101266.05;;;29.72;19.20
82311;BME280;72015;51.330;12.316;2023-09-30T13:45:45;101262.80;;;30.15;18.32
82311;BME280;72015;51.330;12.316;2023-09-30T13:50:01;101259.88;;;30.62;17.76
82311;BME280;72015;51.330;12.316;2023-09-30T13:54:17;101257.54;;;30.90;17.82
82311;BME280;72015;51.330;12.316;2023-09-30T13:58:33;101256.50;;;31.22;17.63
82311;BME280;72015;51.330;12.316;2023-09-30T14:02:49;101255.81;;;31.44;17.80
82311;BME280;72015;51.330;12.316;2023-09-30T14:07:05;101253.89;;;31.59;17.76
82311;BME280;72015;51.330;12.316;2023-09-30T14:11:21;101252.80;;;31.70;17.44
82311;BME280;72015;51.330;12.316;2023-09-30T14:15:37;101251.19;;;31.70;17.56
82311;BME280;72015;51.330;12.316;2023-09-30T14:19:53;101250.12;;;31.52;18.40
82311;BME280;72015;51.330;12.316;2023-09-30T14:24:09;101250.78;;;31.28;18.54
82311;BME280;72015;51.330;12.316;2023-09-30T14:28:25;101248.88;;;31.11;18.67
82311;BME280;72015;51.330;12.316;2023-09-30T14:32:41;101247.99;;;30.71;19.22
82311;BME280;72015;51.330;12.316;2023-09-30T14:36:57;101247.07;;;30.44;19.29
82311;BME280;72015;51.330;12.316;2023-09-30T14:41:13;101246.91;;;30.14;19.76
82311;BME280;72015;51.330;12.316;2023-09-30T14:45:29;101244.10;;;29.58;21.04
82311;BME280;72015;51.330;12.316;2023-09-30T14:49:45;101239.62;;;29.15;20.62
82311;BME280;72015;51.330;12.316;2023-09-30T14:54:04;101236.00;;;28.67;21.46
82311;BME280;72015;51.330;12.316;2023-09-30T14:58:17;101232.31;;;28.28;21.42
82311;BME280;72015;51.330;12.316;2023-09-30T15:02:33;101229.55;;;27.94;21.50
82311;BME280;72015;51.330;12.316;2023-09-30T15:06:49;101226.93;;;27.67;21.70
82311;BME280;72015;51.330;12.316;2023-09-30T15:11:05;101223.86;;;27.29;22.75
82311;BME280;72015;51.330;12.316;2023-09-30T15:15:21;101222.16;;;26.76;23.25
82311;BME280;72015;51.330;12.316;2023-09-30T15:19:37;101221.58;;;26.38;23.57
82311;BME280;72015;51.330;12.316;2023-09-30T15:23:53;101221.67;;;26.07;23.33
82311;BME280;72015;51.330;12.316;2023-09-30T15:28:09;101221.17;;;25.82;23.39
82311;BME280;72015;51.330;12.316;2023-09-30T15:32:25;101220.81;;;25.60;23.83
82311;BME280;72015;51.330;12.316;2023-09-30T15:36:41;101218.99;;;25.41;23.98
82311;BME280;72015;51.330;12.316;2023-09-30T15:40:57;101218.42;;;25.27;23.89
82311;BME280;72015;51.330;12.316;2023-09-30T15:45:13;101219.56;;;25.11;24.16
82311;BME280;72015;51.330;12.316;2023-09-30T15:49:29;101221.85;;;24.95;24.40
82311;BME280;72015;51.330;12.316;2023-09-30T15:53:45;101219.69;;;24.81;24.56
82311;BME280;72015;51.330;12.316;2023-09-30T15:58:01;101219.31;;;24.72;24.51
82311;BME280;72015;51.330;12.316;2023-09-30T16:02:17;101218.82;;;24.65;24.32
82311;BME280;72015;51.330;12.316;2023-09-30T16:06:33;101217.58;;;24.59;24.37
82311;BME280;72015;51.330;12.316;2023-09-30T16:10:49;101214.20;;;24.47;24.81
82311;BME280;72015;51.330;12.316;2023-09-30T16:15:06;101211.94;;;24.35;24.89
82311;BME280;72015;51.330;12.316;2023-09-30T16:19:22;101210.31;;;24.23;25.21
82311;BME280;72015;51.330;12.316;2023-09-30T16:23:37;101208.25;;;24.09;25.44
82311;BME280;72015;51.330;12.316;2023-09-30T16:27:53;101206.76;;;23.90;25.76
82311;BME280;72015;51.330;12.316;2023-09-30T16:32:09;101205.22;;;23.67;25.96
82311;BME280;72015;51.330;12.316;2023-09-30T16:36:25;101204.94;;;23.47;26.33
82311;BME280;72015;51.330;12.316;2023-09-30T16:40:45;101206.44;;;23.29;26.64
82311;BME280;72015;51.330;12.316;2023-09-30T16:44:57;101209.55;;;23.12;27.02
82311;BME280;72015;51.330;12.316;2023-09-30T16:49:13;101213.13;;;22.98;27.71
82311;BME280;72015;51.330;12.316;2023-09-30T16:53:29;101215.41;;;22.88;27.72
82311;BME280;72015;51.330;12.316;2023-09-30T16:57:45;101219.45;;;22.81;27.36
82311;BME280;72015;51.330;12.316;2023-09-30T17:02:01;101223.29;;;22.74;27.89
82311;BME280;72015;51.330;12.316;2023-09-30T17:06:17;101226.61;;;22.65;27.85
82311;BME280;72015;51.330;12.316;2023-09-30T17:10:34;101228.38;;;22.54;27.56
82311;BME280;72015;51.330;12.316;2023-09-30T17:14:49;101230.08;;;22.43;27.78
82311;BME280;72015;51.330;12.316;2023-09-30T17:19:05;101231.17;;;22.31;27.81
82311;BME280;72015;51.330;12.316;2023-09-30T17:23:21;101232.89;;;22.19;28.29
82311;BME280;72015;51.330;12.316;2023-09-30T17:27:37;101234.83;;;22.08;28.15
82311;BME280;72015;51.330;12.316;2023-09-30T17:31:53;101235.50;;;21.98;28.54
82311;BME280;72015;51.330;12.316;2023-09-30T17:36:09;101235.64;;;21.88;28.28
82311;BME280;72015;51.330;12.316;2023-09-30T17:40:25;101236.54;;;21.78;28.65
82311;BME280;72015;51.330;12.316;2023-09-30T17:44:41;101237.33;;;21.68;29.50
82311;BME280;72015;51.330;12.316;2023-09-30T17:48:57;101238.59;;;21.59;29.95
82311;BME280;72015;51.330;12.316;2023-09-30T17:53:13;101240.72;;;21.51;30.01
82311;BME280;72015;51.330;12.316;2023-09-30T17:57:29;101242.33;;;21.43;30.13
82311;BME280;72015;51.330;12.316;2023-09-30T18:01:45;101245.06;;;21.36;30.29
82311;BME280;72015;51.330;12.316;2023-09-30T18:10:18;101252.26;;;21.20;30.94
82311;BME280;72015;51.330;12.316;2023-09-30T18:14:33;101254.99;;;21.12;31.17
82311;BME280;72015;51.330;12.316;2023-09-30T18:18:49;101256.36;;;21.06;30.62
82311;BME280;72015;51.330;12.316;2023-09-30T18:23:05;101257.33;;;20.99;30.81
82311;BME280;72015;51.330;12.316;2023-09-30T18:27:22;101259.11;;;20.91;31.12
82311;BME280;72015;51.330;12.316;2023-09-30T18:31:38;101258.63;;;20.81;31.04
82311;BME280;72015;51.330;12.316;2023-09-30T18:35:54;101258.10;;;20.70;30.94
82311;BME280;72015;51.330;12.316;2023-09-30T18:40:10;101260.41;;;20.61;31.84
82311;BME280;72015;51.330;12.316;2023-09-30T18:44:26;101261.27;;;20.52;30.72
82311;BME280;72015;51.330;12.316;2023-09-30T18:48:42;101262.70;;;20.42;30.73
82311;BME280;72015;51.330;12.316;2023-09-30T18:52:58;101263.43;;;20.32;30.82
82311;BME280;72015;51.330;12.316;2023-09-30T18:57:14;101264.18;;;20.23;30.92
82311;BME280;72015;51.330;12.316;2023-09-30T19:01:30;101263.14;;;20.15;31.00
82311;BME280;72015;51.330;12.316;2023-09-30T19:05:46;101260.74;;;20.09;31.19
82311;BME280;72015;51.330;12.316;2023-09-30T19:10:02;101258.64;;;20.05;30.88
82311;BME280;72015;51.330;12.316;2023-09-30T19:14:18;101256.80;;;20.02;30.92
82311;BME280;72015;51.330;12.316;2023-09-30T19:18:34;101255.22;;;19.99;30.94
82311;BME280;72015;51.330;12.316;2023-09-30T19:22:50;101254.86;;;19.98;30.99
82311;BME280;72015;51.330;12.316;2023-09-30T19:27:06;101253.78;;;19.96;31.59
82311;BME280;72015;51.330;12.316;2023-09-30T19:31:22;101252.38;;;19.94;31.59
82311;BME280;72015;51.330;12.316;2023-09-30T19:35:38;101253.03;;;19.90;31.30
82311;BME280;72015;51.330;12.316;2023-09-30T19:39:54;101254.63;;;19.85;32.08
82311;BME280;72015;51.330;12.316;2023-09-30T19:44:10;101255.15;;;19.80;32.30
82311;BME280;72015;51.330;12.316;2023-09-30T19:48:26;101255.00;;;19.74;32.32
82311;BME280;72015;51.330;12.316;2023-09-30T19:52:42;101254.96;;;19.68;32.16
82311;BME280;72015;51.330;12.316;2023-09-30T19:56:58;101253.30;;;19.60;32.72
82311;BME280;72015;51.330;12.316;2023-09-30T20:01:14;101252.93;;;19.53;33.01
82311;BME280;72015;51.330;12.316;2023-09-30T20:05:30;101252.31;;;19.46;33.08
82311;BME280;72015;51.330;12.316;2023-09-30T20:09:46;101251.90;;;19.39;32.73
82311;BME280;72015;51.330;12.316;2023-09-30T20:14:02;101251.50;;;19.31;32.80
82311;BME280;72015;51.330;12.316;2023-09-30T20:18:18;101250.67;;;19.23;32.80
82311;BME280;72015;51.330;12.316;2023-09-30T20:22:34;101249.20;;;19.14;32.85
82311;BME280;72015;51.330;12.316;2023-09-30T20:26:50;101249.41;;;19.06;33.02
82311;BME280;72015;51.330;12.316;2023-09-30T20:31:06;101250.73;;;18.99;32.85
82311;BME280;72015;51.330;12.316;2023-09-30T20:35:22;101251.44;;;18.91;32.85
82311;BME280;72015;51.330;12.316;2023-09-30T20:39:38;101252.01;;;18.81;33.16
82311;BME280;72015;51.330;12.316;2023-09-30T20:43:54;101252.43;;;18.71;33.41
82311;BME280;72015;51.330;12.316;2023-09-30T20:48:10;101252.84;;;18.61;33.05
82311;BME280;72015;51.330;12.316;2023-09-30T20:52:26;101252.12;;;18.51;33.09
82311;BME280;72015;51.330;12.316;2023-09-30T20:56:42;101253.27;;;18.39;33.33
82311;BME280;72015;51.330;12.316;2023-09-30T21:00:58;101254.52;;;18.29;33.45
82311;BME280;72015;51.330;12.316;2023-09-30T21:05:14;101254.91;;;18.20;33.63
82311;BME280;72015;51.330;12.316;2023-09-30T21:09:30;101255.40;;;18.12;33.86
82311;BME280;72015;51.330;12.316;2023-09-30T21:13:46;101255.24;;;18.06;33.75
82311;BME280;72015;51.330;12.316;2023-09-30T21:18:02;101256.22;;;18.00;33.87
82311;BME280;72015;51.330;12.316;2023-09-30T21:22:18;101256.46;;;17.95;33.77
82311;BME280;72015;51.330;12.316;2023-09-30T21:26:34;101255.64;;;17.91;33.86
82311;BME280;72015;51.330;12.316;2023-09-30T21:30:50;101255.46;;;17.87;33.85
82311;BME280;72015;51.330;12.316;2023-09-30T21:35:06;101256.42;;;17.84;33.75
82311;BME280;72015;51.330;12.316;2023-09-30T21:39:22;101258.17;;;17.80;33.92
82311;BME280;72015;51.330;12.316;2023-09-30T21:43:38;101259.63;;;17.77;33.82
82311;BME280;72015;51.330;12.316;2023-09-30T21:47:54;101261.58;;;17.75;34.02
82311;BME280;72015;51.330;12.316;2023-09-30T21:52:10;101263.33;;;17.73;33.98
82311;BME280;72015;51.330;12.316;2023-09-30T21:56:26;101263.84;;;17.71;34.17
82311;BME280;72015;51.330;12.316;2023-09-30T22:00:42;101263.82;;;17.69;34.10
82311;BME280;72015;51.330;12.316;2023-09-30T22:04:58;101263.97;;;17.67;34.13
82311;BME280;72015;51.330;12.316;2023-09-30T22:09:14;101264.03;;;17.65;34.17
82311;BME280;72015;51.330;12.316;2023-09-30T22:13:30;101262.84;;;17.64;34.34
82311;BME280;72015;51.330;12.316;2023-09-30T22:17:46;101261.74;;;17.62;34.35
82311;BME280;72015;51.330;12.316;2023-09-30T22:22:02;101261.25;;;17.59;34.52